sensor_id;sensor_type;location;lat;lon;timestamp;P1;durP1;ratioP1;P2;durP2;ratioP2
17361;SDS011;8798;51.938;4.348;2023-05-13T00:00:48;13.50;;;8.97;;
17361;SDS011;8798;51.938;4.348;2023-05-13T00:03:18;13.10;;;9.03;;
17361;SDS011;8798;51.938;4.348;2023-05-13T00:05:46;13.13;;;8.77;;
17361;SDS011;8798;51.938;4.348;2023-05-13T00:08:14;13.07;;;8.57;;
17361;SDS011;8798;51.938;4.348;2023-05-13T00:10:42;12.33;;;8.00;;
17361;SDS011;8798;51.938;4.348;2023-05-13T00:13:10;11.93;;;8.30;;
17361;SDS011;8798;51.938;4.348;2023-05-13T00:15:39;11.07;;;8.17;;
17361;SDS011;8798;51.938;4.348;2023-05-13T00:18:07;10.63;;;7.50;;
17361;SDS011;8798;51.938;4.348;2023-05-13T00:20:36;12.63;;;7.87;;
17361;SDS011;8798;51.938;4.348;2023-05-13T00:23:04;11.40;;;7.40;;
17361;SDS011;8798;51.938;4.348;2023-05-13T00:25:33;12.37;;;7.53;;
17361;SDS011;8798;51.938;4.348;2023-05-13T00:28:01;11.87;;;7.03;;
17361;SDS011;8798;51.938;4.348;2023-05-13T00:30:28;9.63;;;7.30;;
17361;SDS011;8798;51.938;4.348;2023-05-13T00:32:56;9.07;;;7.10;;
17361;SDS011;8798;51.938;4.348;2023-05-13T00:35:24;11.13;;;7.23;;
17361;SDS011;8798;51.938;4.348;2023-05-13T00:37:54;9.43;;;6.83;;
17361;SDS011;8798;51.938;4.348;2023-05-13T00:40:22;9.70;;;6.77;;
17361;SDS011;8798;51.938;4.348;2023-05-13T00:42:51;9.87;;;6.50;;
17361;SDS011;8798;51.938;4.348;2023-05-13T00:45:20;8.43;;;6.40;;
17361;SDS011;8798;51.938;4.348;2023-05-13T00:47:48;9.30;;;6.07;;
17361;SDS011;8798;51.938;4.348;2023-05-13T00:50:16;8.83;;;5.57;;
17361;SDS011;8798;51.938;4.348;2023-05-13T00:52:44;7.50;;;5.20;;
17361;SDS011;8798;51.938;4.348;2023-05-13T00:55:15;7.00;;;5.30;;
17361;SDS011;8798;51.938;4.348;2023-05-13T00:57:43;8.60;;;5.53;;
17361;SDS011;8798;51.938;4.348;2023-05-13T01:00:11;8.10;;;5.10;;
17361;SDS011;8798;51.938;4.348;2023-05-13T01:02:41;8.20;;;5.67;;
17361;SDS011;8798;51.938;4.348;2023-05-13T01:05:18;8.27;;;5.23;;
17361;SDS011;8798;51.938;4.348;2023-05-13T01:07:53;8.37;;;5.07;;
17361;SDS011;8798;51.938;4.348;2023-05-13T01:10:29;12.50;;;5.93;;
17361;SDS011;8798;51.938;4.348;2023-05-13T01:13:03;10.37;;;5.90;;
17361;SDS011;8798;51.938;4.348;2023-05-13T01:15:38;7.27;;;5.30;;
17361;SDS011;8798;51.938;4.348;2023-05-13T01:18:11;9.63;;;5.83;;
17361;SDS011;8798;51.938;4.348;2023-05-13T01:20:42;7.30;;;5.30;;
17361;SDS011;8798;51.938;4.348;2023-05-13T01:23:13;8.70;;;5.50;;
17361;SDS011;8798;51.938;4.348;2023-05-13T01:25:41;10.03;;;5.63;;
17361;SDS011;8798;51.938;4.348;2023-05-13T01:28:10;7.20;;;5.43;;
17361;SDS011;8798;51.938;4.348;2023-05-13T01:30:38;8.47;;;5.20;;
17361;SDS011;8798;51.938;4.348;2023-05-13T01:33:06;9.97;;;5.73;;
17361;SDS011;8798;51.938;4.348;2023-05-13T01:35:34;7.37;;;5.00;;
17361;SDS011;8798;51.938;4.348;2023-05-13T01:38:02;7.47;;;5.17;;
17361;SDS011;8798;51.938;4.348;2023-05-13T01:40:32;9.63;;;5.30;;
17361;SDS011;8798;51.938;4.348;2023-05-13T01:43:02;7.17;;;4.97;;
17361;SDS011;8798;51.938;4.348;2023-05-13T01:45:29;7.73;;;5.27;;
17361;SDS011;8798;51.938;4.348;2023-05-13T01:47:58;7.23;;;5.40;;
17361;SDS011;8798;51.938;4.348;2023-05-13T01:50:26;9.00;;;5.13;;
17361;SDS011;8798;51.938;4.348;2023-05-13T01:52:54;6.83;;;5.23;;
17361;SDS011;8798;51.938;4.348;2023-05-13T01:55:22;9.23;;;4.97;;
17361;SDS011;8798;51.938;4.348;2023-05-13T01:57:51;7.47;;;5.47;;
17361;SDS011;8798;51.938;4.348;2023-05-13T02:00:19;7.83;;;4.97;;
17361;SDS011;8798;51.938;4.348;2023-05-13T02:02:49;7.97;;;5.10;;
17361;SDS011;8798;51.938;4.348;2023-05-13T02:05:18;8.93;;;5.50;;
17361;SDS011;8798;51.938;4.348;2023-05-13T02:07:46;10.77;;;4.73;;
17361;SDS011;8798;51.938;4.348;2023-05-13T02:10:14;7.90;;;5.17;;
17361;SDS011;8798;51.938;4.348;2023-05-13T02:12:41;8.03;;;4.90;;
17361;SDS011;8798;51.938;4.348;2023-05-13T02:15:11;7.37;;;5.03;;
17361;SDS011;8798;51.938;4.348;2023-05-13T02:17:39;8.07;;;4.60;;
17361;SDS011;8798;51.938;4.348;2023-05-13T02:20:08;7.20;;;4.80;;
17361;SDS011;8798;51.938;4.348;2023-05-13T02:22:36;6.33;;;4.80;;
17361;SDS011;8798;51.938;4.348;2023-05-13T02:25:04;6.50;;;4.30;;
17361;SDS011;8798;51.938;4.348;2023-05-13T02:27:33;5.60;;;4.67;;
17361;SDS011;8798;51.938;4.348;2023-05-13T02:30:01;7.47;;;5.13;;
17361;SDS011;8798;51.938;4.348;2023-05-13T02:32:30;11.93;;;4.90;;
17361;SDS011;8798;51.938;4.348;2023-05-13T02:34:58;7.77;;;4.93;;
17361;SDS011;8798;51.938;4.348;2023-05-13T02:37:26;7.37;;;4.57;;
17361;SDS011;8798;51.938;4.348;2023-05-13T02:39:54;6.50;;;4.40;;
17361;SDS011;8798;51.938;4.348;2023-05-13T02:42:22;6.73;;;4.80;;
17361;SDS011;8798;51.938;4.348;2023-05-13T02:44:49;7.80;;;4.63;;
17361;SDS011;8798;51.938;4.348;2023-05-13T02:47:17;6.77;;;4.80;;
17361;SDS011;8798;51.938;4.348;2023-05-13T02:49:47;6.90;;;4.40;;
17361;SDS011;8798;51.938;4.348;2023-05-13T02:52:14;7.70;;;4.13;;
17361;SDS011;8798;51.938;4.348;2023-05-13T02:54:42;5.77;;;4.23;;
17361;SDS011;8798;51.938;4.348;2023-05-13T02:57:10;6.17;;;4.27;;
17361;SDS011;8798;51.938;4.348;2023-05-13T02:59:38;7.30;;;4.20;;
17361;SDS011;8798;51.938;4.348;2023-05-13T03:02:06;9.30;;;4.17;;
17361;SDS011;8798;51.938;4.348;2023-05-13T03:04:34;6.73;;;4.37;;
17361;SDS011;8798;51.938;4.348;2023-05-13T03:07:03;7.10;;;4.20;;
17361;SDS011;8798;51.938;4.348;2023-05-13T03:09:31;6.77;;;4.43;;
17361;SDS011;8798;51.938;4.348;2023-05-13T03:12:00;7.43;;;4.40;;
17361;SDS011;8798;51.938;4.348;2023-05-13T03:14:28;6.63;;;4.60;;
17361;SDS011;8798;51.938;4.348;2023-05-13T03:16:55;6.87;;;4.37;;
17361;SDS011;8798;51.938;4.348;2023-05-13T03:19:23;11.00;;;4.50;;
17361;SDS011;8798;51.938;4.348;2023-05-13T03:21:51;8.53;;;4.60;;
17361;SDS011;8798;51.938;4.348;2023-05-13T03:24:20;7.00;;;4.57;;
17361;SDS011;8798;51.938;4.348;2023-05-13T03:26:48;7.03;;;4.40;;
17361;SDS011;8798;51.938;4.348;2023-05-13T03:29:16;6.17;;;4.27;;
17361;SDS011;8798;51.938;4.348;2023-05-13T03:31:44;7.03;;;4.57;;
17361;SDS011;8798;51.938;4.348;2023-05-13T03:34:12;6.83;;;4.80;;
17361;SDS011;8798;51.938;4.348;2023-05-13T03:36:40;5.93;;;4.63;;
17361;SDS011;8798;51.938;4.348;2023-05-13T03:39:07;6.03;;;4.60;;
17361;SDS011;8798;51.938;4.348;2023-05-13T03:41:37;7.13;;;4.60;;
17361;SDS011;8798;51.938;4.348;2023-05-13T03:44:04;8.80;;;4.70;;
17361;SDS011;8798;51.938;4.348;2023-05-13T03:46:32;7.23;;;5.00;;
17361;SDS011;8798;51.938;4.348;2023-05-13T03:49:00;9.90;;;5.23;;
17361;SDS011;8798;51.938;4.348;2023-05-13T03:51:28;7.63;;;5.17;;
17361;SDS011;8798;51.938;4.348;2023-05-13T03:53:56;11.30;;;5.03;;
17361;SDS011;8798;51.938;4.348;2023-05-13T03:56:24;10.07;;;5.10;;
17361;SDS011;8798;51.938;4.348;2023-05-13T03:58:53;9.37;;;5.80;;
17361;SDS011;8798;51.938;4.348;2023-05-13T04:01:21;10.03;;;5.73;;
17361;SDS011;8798;51.938;4.348;2023-05-13T04:03:49;14.50;;;6.30;;
17361;SDS011;8798;51.938;4.348;2023-05-13T04:06:16;9.60;;;5.87;;
17361;SDS011;8798;51.938;4.348;2023-05-13T04:08:44;8.87;;;5.70;;
17361;SDS011;8798;51.938;4.348;2023-05-13T04:11:12;8.50;;;5.53;;
17361;SDS011;8798;51.938;4.348;2023-05-13T04:13:40;10.83;;;6.30;;
17361;SDS011;8798;51.938;4.348;2023-05-13T04:16:10;11.70;;;6.33;;
17361;SDS011;8798;51.938;4.348;2023-05-13T04:18:38;12.50;;;7.00;;
17361;SDS011;8798;51.938;4.348;2023-05-13T04:21:06;10.73;;;6.03;;
17361;SDS011;8798;51.938;4.348;2023-05-13T04:23:34;10.90;;;6.40;;
17361;SDS011;8798;51.938;4.348;2023-05-13T04:26:02;11.13;;;6.93;;
17361;SDS011;8798;51.938;4.348;2023-05-13T04:28:30;10.20;;;6.80;;
17361;SDS011;8798;51.938;4.348;2023-05-13T04:30:58;11.23;;;7.13;;
17361;SDS011;8798;51.938;4.348;2023-05-13T04:33:27;12.27;;;7.37;;
17361;SDS011;8798;51.938;4.348;2023-05-13T04:35:55;10.30;;;7.20;;
17361;SDS011;8798;51.938;4.348;2023-05-13T04:38:22;14.90;;;7.57;;
17361;SDS011;8798;51.938;4.348;2023-05-13T04:40:50;12.87;;;7.60;;
17361;SDS011;8798;51.938;4.348;2023-05-13T04:43:19;17.27;;;7.97;;
17361;SDS011;8798;51.938;4.348;2023-05-13T04:45:47;12.70;;;8.10;;
17361;SDS011;8798;51.938;4.348;2023-05-13T04:48:15;14.13;;;8.50;;
17361;SDS011;8798;51.938;4.348;2023-05-13T04:50:45;13.47;;;8.13;;
17361;SDS011;8798;51.938;4.348;2023-05-13T04:53:14;17.47;;;7.80;;
17361;SDS011;8798;51.938;4.348;2023-05-13T04:55:42;14.30;;;8.17;;
17361;SDS011;8798;51.938;4.348;2023-05-13T04:58:09;16.43;;;7.57;;
17361;SDS011;8798;51.938;4.348;2023-05-13T05:00:37;12.70;;;8.27;;
17361;SDS011;8798;51.938;4.348;2023-05-13T05:03:05;13.97;;;8.07;;
17361;SDS011;8798;51.938;4.348;2023-05-13T05:05:33;19.57;;;8.70;;
17361;SDS011;8798;51.938;4.348;2023-05-13T05:08:02;18.60;;;9.07;;
17361;SDS011;8798;51.938;4.348;2023-05-13T05:10:30;16.20;;;7.83;;
17361;SDS011;8798;51.938;4.348;2023-05-13T05:12:57;15.87;;;9.10;;
17361;SDS011;8798;51.938;4.348;2023-05-13T05:15:26;14.90;;;8.43;;
17361;SDS011;8798;51.938;4.348;2023-05-13T05:17:55;16.60;;;8.07;;
17361;SDS011;8798;51.938;4.348;2023-05-13T05:20:23;16.00;;;8.07;;
17361;SDS011;8798;51.938;4.348;2023-05-13T05:22:51;14.27;;;8.07;;
17361;SDS011;8798;51.938;4.348;2023-05-13T05:25:20;12.70;;;8.07;;
17361;SDS011;8798;51.938;4.348;2023-05-13T05:27:50;14.73;;;7.83;;
17361;SDS011;8798;51.938;4.348;2023-05-13T05:30:18;14.83;;;7.90;;
17361;SDS011;8798;51.938;4.348;2023-05-13T05:32:47;13.63;;;7.87;;
17361;SDS011;8798;51.938;4.348;2023-05-13T05:35:15;20.33;;;8.43;;
17361;SDS011;8798;51.938;4.348;2023-05-13T05:37:44;15.70;;;8.33;;
17361;SDS011;8798;51.938;4.348;2023-05-13T05:40:12;10.40;;;7.53;;
17361;SDS011;8798;51.938;4.348;2023-05-13T05:42:42;13.33;;;7.83;;
17361;SDS011;8798;51.938;4.348;2023-05-13T05:45:09;15.60;;;8.23;;
17361;SDS011;8798;51.938;4.348;2023-05-13T05:47:37;17.10;;;7.50;;
17361;SDS011;8798;51.938;4.348;2023-05-13T05:50:06;13.50;;;8.07;;
17361;SDS011;8798;51.938;4.348;2023-05-13T05:52:34;15.03;;;7.50;;
17361;SDS011;8798;51.938;4.348;2023-05-13T05:55:02;17.40;;;7.67;;
17361;SDS011;8798;51.938;4.348;2023-05-13T05:57:29;12.80;;;8.17;;
17361;SDS011;8798;51.938;4.348;2023-05-13T05:59:59;12.03;;;7.00;;
17361;SDS011;8798;51.938;4.348;2023-05-13T06:02:26;13.07;;;7.17;;
17361;SDS011;8798;51.938;4.348;2023-05-13T06:04:54;15.20;;;7.67;;
17361;SDS011;8798;51.938;4.348;2023-05-13T06:07:22;14.70;;;7.80;;
17361;SDS011;8798;51.938;4.348;2023-05-13T06:09:50;14.43;;;7.03;;
17361;SDS011;8798;51.938;4.348;2023-05-13T06:12:18;14.20;;;7.83;;
17361;SDS011;8798;51.938;4.348;2023-05-13T06:14:46;14.97;;;7.93;;
17361;SDS011;8798;51.938;4.348;2023-05-13T06:17:15;12.70;;;7.53;;
17361;SDS011;8798;51.938;4.348;2023-05-13T06:19:43;13.67;;;7.90;;
17361;SDS011;8798;51.938;4.348;2023-05-13T06:22:10;11.80;;;7.30;;
17361;SDS011;8798;51.938;4.348;2023-05-13T06:24:38;14.30;;;8.00;;
17361;SDS011;8798;51.938;4.348;2023-05-13T06:27:08;13.63;;;7.83;;
17361;SDS011;8798;51.938;4.348;2023-05-13T06:29:36;11.53;;;7.33;;
17361;SDS011;8798;51.938;4.348;2023-05-13T06:32:05;15.60;;;7.23;;
17361;SDS011;8798;51.938;4.348;2023-05-13T06:34:35;11.40;;;6.77;;
17361;SDS011;8798;51.938;4.348;2023-05-13T06:37:06;11.87;;;6.97;;
17361;SDS011;8798;51.938;4.348;2023-05-13T06:39:34;12.50;;;7.50;;
17361;SDS011;8798;51.938;4.348;2023-05-13T06:42:02;13.50;;;7.50;;
17361;SDS011;8798;51.938;4.348;2023-05-13T06:44:31;10.57;;;6.87;;
17361;SDS011;8798;51.938;4.348;2023-05-13T06:46:59;17.43;;;6.97;;
17361;SDS011;8798;51.938;4.348;2023-05-13T06:49:28;12.20;;;6.93;;
17361;SDS011;8798;51.938;4.348;2023-05-13T06:51:57;10.67;;;6.53;;
17361;SDS011;8798;51.938;4.348;2023-05-13T06:54:25;10.37;;;6.63;;
17361;SDS011;8798;51.938;4.348;2023-05-13T06:56:53;12.50;;;6.83;;
17361;SDS011;8798;51.938;4.348;2023-05-13T06:59:21;12.67;;;6.47;;
17361;SDS011;8798;51.938;4.348;2023-05-13T07:01:48;10.07;;;6.00;;
17361;SDS011;8798;51.938;4.348;2023-05-13T07:04:16;9.47;;;5.97;;
17361;SDS011;8798;51.938;4.348;2023-05-13T07:06:44;10.20;;;6.40;;
17361;SDS011;8798;51.938;4.348;2023-05-13T07:09:13;11.13;;;6.90;;
17361;SDS011;8798;51.938;4.348;2023-05-13T07:11:41;12.37;;;6.27;;
17361;SDS011;8798;51.938;4.348;2023-05-13T07:14:09;9.30;;;6.00;;
17361;SDS011;8798;51.938;4.348;2023-05-13T07:16:37;10.57;;;5.83;;
17361;SDS011;8798;51.938;4.348;2023-05-13T07:19:05;10.17;;;5.93;;
17361;SDS011;8798;51.938;4.348;2023-05-13T07:21:34;10.57;;;5.63;;
17361;SDS011;8798;51.938;4.348;2023-05-13T07:24:01;8.30;;;5.60;;
17361;SDS011;8798;51.938;4.348;2023-05-13T07:26:32;9.27;;;5.43;;
17361;SDS011;8798;51.938;4.348;2023-05-13T07:29:00;10.60;;;5.43;;
17361;SDS011;8798;51.938;4.348;2023-05-13T07:31:28;8.60;;;5.63;;
17361;SDS011;8798;51.938;4.348;2023-05-13T07:33:57;10.47;;;5.87;;
17361;SDS011;8798;51.938;4.348;2023-05-13T07:36:24;9.80;;;5.43;;
17361;SDS011;8798;51.938;4.348;2023-05-13T07:38:53;9.10;;;5.05;;
17361;SDS011;8798;51.938;4.348;2023-05-13T07:41:21;8.33;;;5.10;;
17361;SDS011;8798;51.938;4.348;2023-05-13T07:43:50;9.20;;;5.40;;
17361;SDS011;8798;51.938;4.348;2023-05-13T07:46:18;8.70;;;4.80;;
17361;SDS011;8798;51.938;4.348;2023-05-13T07:48:46;8.03;;;4.33;;
17361;SDS011;8798;51.938;4.348;2023-05-13T07:51:13;8.73;;;4.33;;
17361;SDS011;8798;51.938;4.348;2023-05-13T07:53:43;8.50;;;4.17;;
17361;SDS011;8798;51.938;4.348;2023-05-13T07:56:12;7.03;;;4.03;;
17361;SDS011;8798;51.938;4.348;2023-05-13T07:58:40;5.90;;;4.57;;
17361;SDS011;8798;51.938;4.348;2023-05-13T08:01:09;5.97;;;4.40;;
17361;SDS011;8798;51.938;4.348;2023-05-13T08:03:37;5.30;;;3.90;;
17361;SDS011;8798;51.938;4.348;2023-05-13T08:06:05;7.80;;;4.10;;
17361;SDS011;8798;51.938;4.348;2023-05-13T08:08:33;5.57;;;3.80;;
17361;SDS011;8798;51.938;4.348;2023-05-13T08:11:01;7.27;;;4.13;;
17361;SDS011;8798;51.938;4.348;2023-05-13T08:13:29;10.93;;;4.20;;
17361;SDS011;8798;51.938;4.348;2023-05-13T08:15:58;5.33;;;3.70;;
17361;SDS011;8798;51.938;4.348;2023-05-13T08:18:28;8.00;;;3.90;;
17361;SDS011;8798;51.938;4.348;2023-05-13T08:20:56;7.37;;;3.63;;
17361;SDS011;8798;51.938;4.348;2023-05-13T08:23:24;5.83;;;3.87;;
17361;SDS011;8798;51.938;4.348;2023-05-13T08:26:09;5.57;;;3.83;;
17361;SDS011;8798;51.938;4.348;2023-05-13T08:28:37;5.70;;;3.63;;
17361;SDS011;8798;51.938;4.348;2023-05-13T08:31:05;6.53;;;3.30;;
17361;SDS011;8798;51.938;4.348;2023-05-13T08:33:34;6.03;;;3.63;;
17361;SDS011;8798;51.938;4.348;2023-05-13T08:36:02;5.87;;;3.60;;
17361;SDS011;8798;51.938;4.348;2023-05-13T08:38:30;5.77;;;3.80;;
17361;SDS011;8798;51.938;4.348;2023-05-13T08:40:58;4.77;;;3.50;;
17361;SDS011;8798;51.938;4.348;2023-05-13T08:43:26;11.20;;;3.83;;
17361;SDS011;8798;51.938;4.348;2023-05-13T08:45:56;5.10;;;3.40;;
17361;SDS011;8798;51.938;4.348;2023-05-13T08:48:29;5.70;;;3.07;;
17361;SDS011;8798;51.938;4.348;2023-05-13T08:50:59;5.20;;;3.33;;
17361;SDS011;8798;51.938;4.348;2023-05-13T08:53:28;6.03;;;3.40;;
17361;SDS011;8798;51.938;4.348;2023-05-13T08:55:57;8.00;;;3.77;;
17361;SDS011;8798;51.938;4.348;2023-05-13T08:58:32;5.73;;;3.60;;
17361;SDS011;8798;51.938;4.348;2023-05-13T09:01:00;7.43;;;3.67;;
17361;SDS011;8798;51.938;4.348;2023-05-13T09:03:28;3.40;;;2.90;;
17361;SDS011;8798;51.938;4.348;2023-05-13T09:06:00;5.17;;;2.90;;
17361;SDS011;8798;51.938;4.348;2023-05-13T09:08:29;3.57;;;3.10;;
17361;SDS011;8798;51.938;4.348;2023-05-13T09:10:57;5.07;;;3.17;;
17361;SDS011;8798;51.938;4.348;2023-05-13T09:13:26;3.57;;;2.90;;
17361;SDS011;8798;51.938;4.348;2023-05-13T09:15:54;6.03;;;3.47;;
17361;SDS011;8798;51.938;4.348;2023-05-13T09:18:27;6.30;;;2.90;;
17361;SDS011;8798;51.938;4.348;2023-05-13T09:20:56;5.63;;;2.80;;
17361;SDS011;8798;51.938;4.348;2023-05-13T09:23:25;4.00;;;2.60;;
17361;SDS011;8798;51.938;4.348;2023-05-13T09:25:54;5.90;;;2.80;;
17361;SDS011;8798;51.938;4.348;2023-05-13T09:28:22;7.77;;;3.20;;
17361;SDS011;8798;51.938;4.348;2023-05-13T09:30:53;6.67;;;3.00;;
17361;SDS011;8798;51.938;4.348;2023-05-13T09:33:22;3.87;;;2.73;;
17361;SDS011;8798;51.938;4.348;2023-05-13T09:35:56;6.07;;;3.00;;
17361;SDS011;8798;51.938;4.348;2023-05-13T09:38:26;3.87;;;2.70;;
17361;SDS011;8798;51.938;4.348;2023-05-13T09:40:57;9.63;;;3.80;;
17361;SDS011;8798;51.938;4.348;2023-05-13T09:43:27;8.37;;;3.60;;
17361;SDS011;8798;51.938;4.348;2023-05-13T09:46:00;7.70;;;4.10;;
17361;SDS011;8798;51.938;4.348;2023-05-13T09:48:30;10.03;;;3.93;;
17361;SDS011;8798;51.938;4.348;2023-05-13T09:50:59;11.37;;;4.20;;
17361;SDS011;8798;51.938;4.348;2023-05-13T09:53:28;7.60;;;3.93;;
17361;SDS011;8798;51.938;4.348;2023-05-13T09:55:57;8.27;;;3.50;;
17361;SDS011;8798;51.938;4.348;2023-05-13T09:58:27;9.60;;;3.67;;
17361;SDS011;8798;51.938;4.348;2023-05-13T10:00:56;9.87;;;3.87;;
17361;SDS011;8798;51.938;4.348;2023-05-13T10:03:25;7.13;;;3.90;;
17361;SDS011;8798;51.938;4.348;2023-05-13T10:05:54;7.80;;;3.53;;
17361;SDS011;8798;51.938;4.348;2023-05-13T10:08:29;9.67;;;3.70;;
17361;SDS011;8798;51.938;4.348;2023-05-13T10:10:58;8.33;;;3.33;;
17361;SDS011;8798;51.938;4.348;2023-05-13T10:13:26;9.73;;;3.97;;
17361;SDS011;8798;51.938;4.348;2023-05-13T10:15:57;6.33;;;3.70;;
17361;SDS011;8798;51.938;4.348;2023-05-13T10:18:26;12.53;;;4.10;;
17361;SDS011;8798;51.938;4.348;2023-05-13T10:20:55;8.20;;;4.20;;
17361;SDS011;8798;51.938;4.348;2023-05-13T10:23:24;10.63;;;4.43;;
17361;SDS011;8798;51.938;4.348;2023-05-13T10:25:57;8.20;;;4.23;;
17361;SDS011;8798;51.938;4.348;2023-05-13T10:28:25;9.50;;;4.30;;
17361;SDS011;8798;51.938;4.348;2023-05-13T10:30:54;11.43;;;4.20;;
17361;SDS011;8798;51.938;4.348;2023-05-13T10:33:22;12.10;;;4.40;;
17361;SDS011;8798;51.938;4.348;2023-05-13T10:35:52;8.50;;;4.20;;
17361;SDS011;8798;51.938;4.348;2023-05-13T10:38:34;10.67;;;5.40;;
17361;SDS011;8798;51.938;4.348;2023-05-13T10:41:24;10.13;;;4.57;;
17361;SDS011;8798;51.938;4.348;2023-05-13T10:44:05;11.03;;;4.60;;
17361;SDS011;8798;51.938;4.348;2023-05-13T10:46:35;10.13;;;4.47;;
17361;SDS011;8798;51.938;4.348;2023-05-13T10:49:05;12.13;;;4.93;;
17361;SDS011;8798;51.938;4.348;2023-05-13T10:51:43;8.83;;;4.40;;
17361;SDS011;8798;51.938;4.348;2023-05-13T10:54:16;10.50;;;4.17;;
17361;SDS011;8798;51.938;4.348;2023-05-13T10:56:47;8.97;;;4.30;;
17361;SDS011;8798;51.938;4.348;2023-05-13T10:59:22;11.03;;;4.60;;
17361;SDS011;8798;51.938;4.348;2023-05-13T11:01:50;13.57;;;4.37;;
17361;SDS011;8798;51.938;4.348;2023-05-13T11:04:19;9.83;;;4.97;;
17361;SDS011;8798;51.938;4.348;2023-05-13T11:06:48;12.50;;;5.70;;
17361;SDS011;8798;51.938;4.348;2023-05-13T11:09:28;12.47;;;5.47;;
17361;SDS011;8798;51.938;4.348;2023-05-13T11:11:58;10.00;;;5.43;;
17361;SDS011;8798;51.938;4.348;2023-05-13T11:14:26;9.33;;;4.43;;
17361;SDS011;8798;51.938;4.348;2023-05-13T11:17:06;10.90;;;5.00;;
17361;SDS011;8798;51.938;4.348;2023-05-13T11:19:37;8.43;;;4.83;;
17361;SDS011;8798;51.938;4.348;2023-05-13T11:22:13;11.60;;;4.73;;
17361;SDS011;8798;51.938;4.348;2023-05-13T11:24:43;10.83;;;4.97;;
17361;SDS011;8798;51.938;4.348;2023-05-13T11:27:13;11.07;;;5.00;;
17361;SDS011;8798;51.938;4.348;2023-05-13T11:29:47;7.20;;;5.07;;
17361;SDS011;8798;51.938;4.348;2023-05-13T11:32:45;11.93;;;5.53;;
17361;SDS011;8798;51.938;4.348;2023-05-13T11:35:22;10.50;;;4.40;;
17361;SDS011;8798;51.938;4.348;2023-05-13T11:37:51;10.43;;;5.17;;
17361;SDS011;8798;51.938;4.348;2023-05-13T11:40:20;9.17;;;4.57;;
17361;SDS011;8798;51.938;4.348;2023-05-13T11:42:50;9.07;;;4.60;;
17361;SDS011;8798;51.938;4.348;2023-05-13T11:45:19;9.43;;;4.80;;
17361;SDS011;8798;51.938;4.348;2023-05-13T11:47:50;8.63;;;4.40;;
17361;SDS011;8798;51.938;4.348;2023-05-13T11:50:19;9.07;;;4.90;;
17361;SDS011;8798;51.938;4.348;2023-05-13T11:52:51;8.63;;;4.83;;
17361;SDS011;8798;51.938;4.348;2023-05-13T11:55:23;9.40;;;4.60;;
17361;SDS011;8798;51.938;4.348;2023-05-13T11:57:53;9.80;;;4.63;;
17361;SDS011;8798;51.938;4.348;2023-05-13T12:00:23;12.47;;;5.57;;
17361;SDS011;8798;51.938;4.348;2023-05-13T12:02:52;9.83;;;4.70;;
17361;SDS011;8798;51.938;4.348;2023-05-13T12:05:21;12.17;;;4.77;;
17361;SDS011;8798;51.938;4.348;2023-05-13T12:07:49;9.03;;;4.57;;
17361;SDS011;8798;51.938;4.348;2023-05-13T12:10:18;10.77;;;4.93;;
17361;SDS011;8798;51.938;4.348;2023-05-13T12:12:46;9.93;;;4.47;;
17361;SDS011;8798;51.938;4.348;2023-05-13T12:15:16;6.67;;;4.00;;
17361;SDS011;8798;51.938;4.348;2023-05-13T12:17:45;11.20;;;4.70;;
17361;SDS011;8798;51.938;4.348;2023-05-13T12:20:15;14.70;;;4.67;;
17361;SDS011;8798;51.938;4.348;2023-05-13T12:22:50;11.07;;;5.07;;
17361;SDS011;8798;51.938;4.348;2023-05-13T12:25:32;7.23;;;4.60;;
17361;SDS011;8798;51.938;4.348;2023-05-13T12:28:07;10.43;;;5.03;;
17361;SDS011;8798;51.938;4.348;2023-05-13T12:30:38;9.50;;;4.97;;
17361;SDS011;8798;51.938;4.348;2023-05-13T12:33:11;7.60;;;4.77;;
17361;SDS011;8798;51.938;4.348;2023-05-13T12:35:43;8.87;;;4.70;;
17361;SDS011;8798;51.938;4.348;2023-05-13T12:38:13;9.77;;;4.90;;
17361;SDS011;8798;51.938;4.348;2023-05-13T12:40:42;11.80;;;5.37;;
17361;SDS011;8798;51.938;4.348;2023-05-13T12:43:11;9.30;;;4.87;;
17361;SDS011;8798;51.938;4.348;2023-05-13T12:45:42;8.83;;;5.03;;
17361;SDS011;8798;51.938;4.348;2023-05-13T12:48:12;11.57;;;4.67;;
17361;SDS011;8798;51.938;4.348;2023-05-13T12:50:41;9.07;;;5.00;;
17361;SDS011;8798;51.938;4.348;2023-05-13T12:53:09;8.50;;;4.67;;
17361;SDS011;8798;51.938;4.348;2023-05-13T12:55:36;8.77;;;4.77;;
17361;SDS011;8798;51.938;4.348;2023-05-13T12:58:05;11.47;;;5.17;;
17361;SDS011;8798;51.938;4.348;2023-05-13T13:00:36;9.00;;;4.97;;
17361;SDS011;8798;51.938;4.348;2023-05-13T13:03:05;10.23;;;5.07;;
17361;SDS011;8798;51.938;4.348;2023-05-13T13:05:34;8.37;;;4.87;;
17361;SDS011;8798;51.938;4.348;2023-05-13T13:08:02;10.20;;;5.07;;
17361;SDS011;8798;51.938;4.348;2023-05-13T13:10:31;10.47;;;5.30;;
17361;SDS011;8798;51.938;4.348;2023-05-13T13:12:59;10.37;;;4.73;;
17361;SDS011;8798;51.938;4.348;2023-05-13T13:15:27;9.47;;;4.80;;
17361;SDS011;8798;51.938;4.348;2023-05-13T13:17:55;12.50;;;5.07;;
17361;SDS011;8798;51.938;4.348;2023-05-13T13:20:24;10.57;;;4.50;;
17361;SDS011;8798;51.938;4.348;2023-05-13T13:22:52;10.93;;;4.50;;
17361;SDS011;8798;51.938;4.348;2023-05-13T13:25:20;8.33;;;4.57;;
17361;SDS011;8798;51.938;4.348;2023-05-13T13:27:48;8.90;;;4.67;;
17361;SDS011;8798;51.938;4.348;2023-05-13T13:30:16;12.20;;;5.37;;
17361;SDS011;8798;51.938;4.348;2023-05-13T13:32:44;10.00;;;4.63;;
17361;SDS011;8798;51.938;4.348;2023-05-13T13:35:12;8.93;;;4.47;;
17361;SDS011;8798;51.938;4.348;2023-05-13T13:37:41;8.48;;;4.82;;
17361;SDS011;8798;51.938;4.348;2023-05-13T13:40:11;9.60;;;4.50;;
17361;SDS011;8798;51.938;4.348;2023-05-13T13:42:39;7.60;;;4.57;;
17361;SDS011;8798;51.938;4.348;2023-05-13T13:45:10;10.57;;;4.73;;
17361;SDS011;8798;51.938;4.348;2023-05-13T13:47:39;9.77;;;4.90;;
17361;SDS011;8798;51.938;4.348;2023-05-13T13:50:08;8.80;;;4.60;;
17361;SDS011;8798;51.938;4.348;2023-05-13T13:52:37;11.48;;;4.90;;
17361;SDS011;8798;51.938;4.348;2023-05-13T13:55:07;8.17;;;4.80;;
17361;SDS011;8798;51.938;4.348;2023-05-13T13:57:37;9.23;;;4.40;;
17361;SDS011;8798;51.938;4.348;2023-05-13T14:00:05;9.50;;;4.35;;
17361;SDS011;8798;51.938;4.348;2023-05-13T14:02:34;7.20;;;4.55;;
17361;SDS011;8798;51.938;4.348;2023-05-13T14:05:02;9.20;;;4.30;;
17361;SDS011;8798;51.938;4.348;2023-05-13T14:07:30;10.18;;;4.95;;
17361;SDS011;8798;51.938;4.348;2023-05-13T14:09:58;9.43;;;4.50;;
17361;SDS011;8798;51.938;4.348;2023-05-13T14:12:28;10.20;;;4.77;;
17361;SDS011;8798;51.938;4.348;2023-05-13T14:14:57;9.32;;;4.78;;
17361;SDS011;8798;51.938;4.348;2023-05-13T14:17:25;12.60;;;5.10;;
17361;SDS011;8798;51.938;4.348;2023-05-13T14:19:53;8.17;;;4.33;;
17361;SDS011;8798;51.938;4.348;2023-05-13T14:22:21;9.05;;;4.97;;
17361;SDS011;8798;51.938;4.348;2023-05-13T14:24:50;8.55;;;4.82;;
17361;SDS011;8798;51.938;4.348;2023-05-13T14:27:18;12.80;;;5.22;;
17361;SDS011;8798;51.938;4.348;2023-05-13T14:29:48;8.85;;;4.65;;
17361;SDS011;8798;51.938;4.348;2023-05-13T14:32:17;6.25;;;4.40;;
17361;SDS011;8798;51.938;4.348;2023-05-13T14:34:45;9.82;;;4.57;;
17361;SDS011;8798;51.938;4.348;2023-05-13T14:37:13;9.98;;;4.70;;
17361;SDS011;8798;51.938;4.348;2023-05-13T14:39:41;11.23;;;4.82;;
17361;SDS011;8798;51.938;4.348;2023-05-13T14:42:08;6.65;;;4.55;;
17361;SDS011;8798;51.938;4.348;2023-05-13T14:44:37;11.70;;;4.85;;
17361;SDS011;8798;51.938;4.348;2023-05-13T14:47:08;9.15;;;4.78;;
17361;SDS011;8798;51.938;4.348;2023-05-13T14:49:36;11.85;;;4.72;;
17361;SDS011;8798;51.938;4.348;2023-05-13T14:52:04;13.48;;;5.10;;
17361;SDS011;8798;51.938;4.348;2023-05-13T14:54:32;12.65;;;5.15;;
17361;SDS011;8798;51.938;4.348;2023-05-13T14:57:01;11.70;;;4.78;;
17361;SDS011;8798;51.938;4.348;2023-05-13T14:59:29;9.45;;;4.90;;
17361;SDS011;8798;51.938;4.348;2023-05-13T15:01:57;12.23;;;4.78;;
17361;SDS011;8798;51.938;4.348;2023-05-13T15:04:26;7.90;;;5.10;;
17361;SDS011;8798;51.938;4.348;2023-05-13T15:06:54;9.57;;;4.80;;